createdAt,value
2023-03-17T00:01:58.116Z,44.78
2023-03-17T00:04:28.019Z,44.69
2023-03-17T00:06:56.848Z,44.81
2023-03-17T00:09:25.474Z,43.89
2023-03-17T00:11:55.369Z,44.25
2023-03-17T00:14:24.391Z,44.14
2023-03-17T00:16:54.299Z,44.43
2023-03-17T00:19:27.929Z,44.46
2023-03-17T00:21:56.418Z,44.47
2023-03-17T00:24:24.916Z,44.31
2023-03-17T00:26:54.631Z,44.41
2023-03-17T00:29:22.978Z,44.59
2023-03-17T00:31:51.795Z,44.95
2023-03-17T00:34:21.592Z,44.67
2023-03-17T00:36:52.318Z,44.40
2023-03-17T00:39:20.933Z,44.59
2023-03-17T00:41:49.225Z,44.78
2023-03-17T00:44:19.033Z,44.61
2023-03-17T00:46:47.745Z,44.74
2023-03-17T00:49:18.787Z,45.24
2023-03-17T00:51:48.114Z,44.78
2023-03-17T00:54:17.206Z,45.33
2023-03-17T00:56:46.186Z,45.03
2023-03-17T00:59:23.113Z,44.91
2023-03-17T01:01:51.645Z,45.20
2023-03-17T01:04:20.272Z,44.84
2023-03-17T01:06:49.684Z,43.86
2023-03-17T01:09:19.673Z,44.52
2023-03-17T01:11:48.824Z,44.22
2023-03-17T01:14:17.670Z,44.14
2023-03-17T01:16:47.999Z,44.25
2023-03-17T01:19:17.028Z,44.47
2023-03-17T01:21:45.795Z,44.34
2023-03-17T01:24:14.671Z,44.44
2023-03-17T01:26:43.302Z,44.15
2023-03-17T01:29:11.636Z,44.15
2023-03-17T01:31:40.084Z,44.29
2023-03-17T01:34:10.290Z,44.42
2023-03-17T01:36:38.695Z,44.32
2023-03-17T01:39:07.482Z,43.99
2023-03-17T01:41:36.657Z,43.97
2023-03-17T01:44:05.795Z,43.42
2023-03-17T01:46:36.086Z,43.23
2023-03-17T01:49:11.408Z,43.29
2023-03-17T01:54:18.508Z,43.61
2023-03-17T01:56:51.944Z,43.80
2023-03-17T01:59:25.164Z,43.69
2023-03-17T02:01:59.443Z,43.93
2023-03-17T02:04:30.334Z,43.28
2023-03-17T02:06:59.201Z,43.46
2023-03-17T02:09:29.661Z,43.89
2023-03-17T02:12:00.984Z,43.86
2023-03-17T02:14:30.214Z,43.44
2023-03-17T02:16:59.150Z,43.68
2023-03-17T02:19:29.424Z,43.28
2023-03-17T02:22:00.980Z,43.35
2023-03-17T02:24:34.787Z,43.49
2023-03-17T02:27:06.972Z,43.42
2023-03-17T02:29:37.998Z,43.78
2023-03-17T02:32:07.132Z,43.47
2023-03-17T02:34:35.838Z,43.30
2023-03-17T02:37:05.919Z,43.20
2023-03-17T02:39:34.318Z,43.11
2023-03-17T02:42:03.259Z,42.78
2023-03-17T02:44:31.671Z,42.80
2023-03-17T02:47:00.126Z,43.03
2023-03-17T02:49:29.155Z,42.40
2023-03-17T02:51:57.550Z,42.40
2023-03-17T02:54:27.565Z,42.41
2023-03-17T02:56:55.946Z,42.15
2023-03-17T02:59:24.296Z,42.53
2023-03-17T03:01:52.663Z,42.24
2023-03-17T03:04:21.727Z,42.30
2023-03-17T03:06:50.181Z,41.75
2023-03-17T03:09:19.103Z,41.02
2023-03-17T03:11:49.061Z,40.79
2023-03-17T03:14:17.527Z,40.78
2023-03-17T03:16:46.087Z,41.33
2023-03-17T03:19:14.372Z,41.57
2023-03-17T03:21:42.715Z,41.73
2023-03-17T03:24:11.802Z,41.31
2023-03-17T03:26:40.078Z,41.19
2023-03-17T03:29:10.576Z,41.23
2023-03-17T03:31:39.541Z,41.45
2023-03-17T03:34:07.862Z,41.06
2023-03-17T03:36:37.170Z,41.21
2023-03-17T03:39:05.627Z,40.98
2023-03-17T03:41:33.995Z,40.86
2023-03-17T03:44:02.362Z,40.83
2023-03-17T03:46:32.880Z,41.02
2023-03-17T03:49:01.475Z,41.04
2023-03-17T03:51:29.859Z,41.54
2023-03-17T03:53:58.196Z,41.24
2023-03-17T03:56:27.245Z,41.36
2023-03-17T03:58:56.580Z,41.09
2023-03-17T04:01:24.922Z,41.18
2023-03-17T04:03:54.616Z,41.23
2023-03-17T04:06:23.034Z,41.00
2023-03-17T04:08:51.336Z,40.94
2023-03-17T04:11:19.738Z,41.26
2023-03-17T04:13:48.096Z,41.42
2023-03-17T04:16:16.566Z,41.31
2023-03-17T04:18:44.964Z,41.33
2023-03-17T04:21:18.588Z,41.43
2023-03-17T04:23:47.409Z,41.70
2023-03-17T04:26:17.524Z,41.76
2023-03-17T04:28:46.423Z,41.85
2023-03-17T04:31:14.726Z,42.03
2023-03-17T04:33:43.356Z,41.75
2023-03-17T04:36:19.517Z,41.66
2023-03-17T04:38:48.161Z,41.89
2023-03-17T04:41:17.058Z,41.90
2023-03-17T04:43:45.386Z,41.67
2023-03-17T04:46:13.799Z,41.85
2023-03-17T04:48:42.537Z,41.90
2023-03-17T04:51:11.885Z,42.03
2023-03-17T04:53:42.108Z,42.21
2023-03-17T04:56:10.821Z,42.41
2023-03-17T04:58:39.299Z,42.71
2023-03-17T05:01:08.822Z,42.30
2023-03-17T05:03:37.371Z,42.21
2023-03-17T05:06:06.458Z,42.83
2023-03-17T05:08:34.862Z,42.91
2023-03-17T05:11:05.219Z,42.92
2023-03-17T05:13:33.579Z,42.81
2023-03-17T05:16:02.464Z,42.73
2023-03-17T05:18:30.945Z,43.03
2023-03-17T05:20:59.306Z,43.12
2023-03-17T05:23:27.892Z,43.25
2023-03-17T05:25:56.235Z,43.45
2023-03-17T05:28:26.862Z,43.30
2023-03-17T05:30:55.922Z,43.21
2023-03-17T05:33:24.670Z,43.17
2023-03-17T05:35:53.817Z,43.15
2023-03-17T05:38:22.258Z,42.80
2023-03-17T05:40:52.834Z,43.00
2023-03-17T05:43:21.415Z,43.33
2023-03-17T05:45:51.855Z,43.58
2023-03-17T05:48:20.227Z,43.32
2023-03-17T05:50:48.532Z,43.29
2023-03-17T05:53:17.644Z,43.21
2023-03-17T05:55:46.255Z,43.01
2023-03-17T05:58:15.888Z,42.69
2023-03-17T06:00:45.439Z,42.41
2023-03-17T06:03:15.305Z,42.50
2023-03-17T06:05:43.601Z,42.49
2023-03-17T06:08:12.089Z,42.31
2023-03-17T06:10:41.482Z,42.26
2023-03-17T06:13:11.259Z,42.24
2023-03-17T06:15:40.000Z,42.22
2023-03-17T06:18:08.769Z,42.15
2023-03-17T06:20:38.650Z,41.75
2023-03-17T06:23:07.675Z,42.06
2023-03-17T06:25:37.141Z,42.12
2023-03-17T06:28:06.561Z,42.04
2023-03-17T06:30:38.103Z,42.26
2023-03-17T06:33:08.357Z,42.11
2023-03-17T06:35:38.841Z,42.07
2023-03-17T06:38:07.442Z,42.03
2023-03-17T06:40:35.707Z,41.97
2023-03-17T06:43:04.572Z,42.16
2023-03-17T06:45:34.002Z,41.96
2023-03-17T06:48:02.555Z,42.05
2023-03-17T06:50:31.054Z,42.36
2023-03-17T06:53:01.192Z,41.37
2023-03-17T06:55:30.109Z,41.67
2023-03-17T06:57:59.106Z,41.67
2023-03-17T07:00:28.595Z,41.91
2023-03-17T07:02:57.050Z,41.87
2023-03-17T07:05:25.382Z,41.71
2023-03-17T07:07:53.911Z,41.92
2023-03-17T07:10:23.766Z,41.91
2023-03-17T07:12:52.137Z,41.89
2023-03-17T07:15:21.022Z,41.54
2023-03-17T07:17:49.310Z,41.71
2023-03-17T07:20:18.039Z,41.61
2023-03-17T07:22:46.671Z,41.66
2023-03-17T07:25:15.514Z,41.42
2023-03-17T07:27:45.874Z,41.36
2023-03-17T07:30:19.206Z,41.48
2023-03-17T07:32:47.809Z,41.33
2023-03-17T07:35:16.578Z,41.08
2023-03-17T07:37:44.881Z,41.16
2023-03-17T07:40:14.471Z,41.02
2023-03-17T07:42:45.643Z,40.76
2023-03-17T07:45:13.949Z,39.96
2023-03-17T07:47:42.274Z,39.99
2023-03-17T07:50:11.504Z,40.19
2023-03-17T07:52:39.940Z,39.88
2023-03-17T07:55:10.692Z,39.58
2023-03-17T07:57:39.171Z,39.86
2023-03-17T08:00:13.973Z,39.45
2023-03-17T08:02:42.505Z,39.75
2023-03-17T08:05:11.691Z,39.57
2023-03-17T08:07:40.635Z,39.73
2023-03-17T08:10:11.835Z,39.93
2023-03-17T08:12:40.240Z,40.16
2023-03-17T08:15:11.242Z,39.86
2023-03-17T08:17:40.267Z,39.76
2023-03-17T08:20:10.176Z,39.93
2023-03-17T08:22:38.583Z,39.63
2023-03-17T08:25:07.704Z,39.54
2023-03-17T08:27:36.466Z,39.48
2023-03-17T08:30:06.098Z,39.15
2023-03-17T08:32:37.198Z,39.09
2023-03-17T08:35:06.504Z,39.05
2023-03-17T08:37:35.022Z,38.44
2023-03-17T08:40:05.491Z,38.48
2023-03-17T08:42:33.779Z,38.29
2023-03-17T08:45:02.136Z,38.29
2023-03-17T08:47:30.482Z,37.48
2023-03-17T08:50:00.899Z,37.18
2023-03-17T08:52:29.785Z,37.51
2023-03-17T08:54:58.079Z,37.34
2023-03-17T08:57:28.036Z,36.94
2023-03-17T08:59:56.634Z,36.72
2023-03-17T09:02:25.014Z,36.65
2023-03-17T09:04:54.374Z,36.72
2023-03-17T09:07:24.077Z,36.75
2023-03-17T09:09:52.754Z,36.62
2023-03-17T09:12:21.154Z,36.58
2023-03-17T09:14:49.539Z,36.55
2023-03-17T09:17:17.889Z,36.32
2023-03-17T09:19:46.222Z,36.42
2023-03-17T09:22:16.159Z,36.11
2023-03-17T09:24:46.755Z,35.79
2023-03-17T09:27:15.774Z,35.77
2023-03-17T09:29:44.434Z,35.91
2023-03-17T09:32:12.927Z,36.09
2023-03-17T09:34:42.128Z,36.13
2023-03-17T09:37:11.069Z,35.70
2023-03-17T09:39:39.347Z,35.46
2023-03-17T09:42:24.730Z,35.27
2023-03-17T09:45:12.446Z,35.31
2023-03-17T09:48:02.127Z,35.42
2023-03-17T09:50:36.306Z,35.19
2023-03-17T09:53:05.656Z,35.45
2023-03-17T09:55:38.244Z,35.30
2023-03-17T09:58:11.367Z,35.19
2023-03-17T10:00:40.207Z,33.75
2023-03-17T10:03:13.033Z,34.15
2023-03-17T10:05:41.324Z,33.48
2023-03-17T10:08:30.009Z,33.04
2023-03-17T10:11:09.554Z,33.96
2023-03-17T10:13:55.094Z,33.73
2023-03-17T10:16:30.977Z,34.01
2023-03-17T10:19:04.652Z,34.05
2023-03-17T10:21:37.018Z,34.07
2023-03-17T10:24:07.142Z,33.04
2023-03-17T10:26:40.680Z,33.47
2023-03-17T10:29:16.069Z,33.35
2023-03-17T10:31:45.003Z,33.70
2023-03-17T10:34:15.435Z,32.82
2023-03-17T10:36:46.032Z,32.95
2023-03-17T10:39:18.729Z,33.39
2023-03-17T10:41:55.697Z,32.49
2023-03-17T10:44:42.370Z,32.02
2023-03-17T10:47:24.587Z,32.11
2023-03-17T10:49:53.920Z,32.55
2023-03-17T10:52:27.587Z,32.65
2023-03-17T10:54:55.929Z,32.66
2023-03-17T10:57:24.271Z,30.07
2023-03-17T10:59:55.630Z,30.92
2023-03-17T11:02:29.554Z,31.35
2023-03-17T11:05:03.046Z,30.94
2023-03-17T11:07:38.277Z,30.64
2023-03-17T11:10:18.593Z,29.47
2023-03-17T11:12:50.689Z,29.96
2023-03-17T11:15:20.822Z,29.57
2023-03-17T11:17:59.704Z,29.23
2023-03-17T11:20:45.576Z,30.15
2023-03-17T11:23:23.767Z,30.50
2023-03-17T11:26:03.370Z,30.69
2023-03-17T11:28:41.208Z,30.51
2023-03-17T11:31:17.419Z,30.22
2023-03-17T11:33:58.165Z,29.65
2023-03-17T11:36:51.835Z,29.56
2023-03-17T11:39:26.811Z,29.37
2023-03-17T11:42:07.502Z,30.03
2023-03-17T11:45:01.513Z,30.24
2023-03-17T11:47:43.148Z,30.28
2023-03-17T11:50:23.147Z,30.08
2023-03-17T11:53:03.794Z,30.04
2023-03-17T11:55:43.101Z,29.43
2023-03-17T11:58:17.112Z,29.16
2023-03-17T12:00:52.722Z,28.72
2023-03-17T12:03:28.968Z,29.16
2023-03-17T12:06:02.000Z,29.72
2023-03-17T12:08:39.434Z,29.02
2023-03-17T12:11:12.285Z,28.92
2023-03-17T12:13:46.729Z,28.33
2023-03-17T12:16:19.755Z,28.84
2023-03-17T12:18:59.291Z,29.23
2023-03-17T12:21:34.399Z,29.28
2023-03-17T12:24:10.099Z,28.80
2023-03-17T12:26:42.142Z,29.16
2023-03-17T12:29:16.129Z,28.67
2023-03-17T12:31:48.207Z,28.36
2023-03-17T12:34:22.630Z,27.55
2023-03-17T12:36:51.641Z,28.11
2023-03-17T12:39:24.295Z,28.40
2023-03-17T12:42:20.047Z,28.45
2023-03-17T12:45:19.848Z,28.54
2023-03-17T12:47:58.959Z,28.58
2023-03-17T12:50:51.797Z,28.66
2023-03-17T12:53:32.664Z,28.37
2023-03-17T12:56:08.272Z,28.21
2023-03-17T12:58:40.666Z,27.28
2023-03-17T13:01:23.113Z,27.58
2023-03-17T13:04:06.762Z,28.10
2023-03-17T13:06:42.721Z,28.41
2023-03-17T13:09:36.164Z,28.07
2023-03-17T13:12:05.861Z,28.60
2023-03-17T13:14:43.563Z,28.25
2023-03-17T13:17:33.741Z,27.49
2023-03-17T13:20:15.276Z,27.59
2023-03-17T13:23:04.112Z,27.32
2023-03-17T13:25:36.211Z,27.86
2023-03-17T13:28:27.194Z,28.31
2023-03-17T13:31:11.626Z,28.26
2023-03-17T13:33:46.867Z,27.65
2023-03-17T13:36:27.407Z,27.71
2023-03-17T13:39:21.855Z,28.28
2023-03-17T13:42:18.788Z,28.35
2023-03-17T13:45:13.466Z,28.45
2023-03-17T13:47:43.792Z,28.61
2023-03-17T13:50:17.278Z,28.94
2023-03-17T13:52:50.011Z,28.78
2023-03-17T13:55:36.152Z,28.76
2023-03-17T13:58:27.617Z,28.53
2023-03-17T14:01:03.979Z,28.86
2023-03-17T14:03:39.393Z,29.15
2023-03-17T14:06:12.037Z,28.97
2023-03-17T14:08:49.210Z,28.60
2023-03-17T14:11:33.965Z,27.96
2023-03-17T14:14:32.550Z,28.17
2023-03-17T14:17:06.593Z,27.88
2023-03-17T14:19:35.165Z,27.63
2023-03-17T14:22:05.664Z,28.20
2023-03-17T14:24:35.255Z,28.28
2023-03-17T14:27:09.101Z,28.21
2023-03-17T14:29:39.222Z,28.06
2023-03-17T14:32:13.477Z,28.50
2023-03-17T14:34:44.776Z,28.68
2023-03-17T14:37:14.184Z,28.99
2023-03-17T14:39:47.474Z,29.12
2023-03-17T14:42:20.825Z,29.05
2023-03-17T14:44:49.171Z,29.39
2023-03-17T14:47:22.299Z,29.62
2023-03-17T14:49:52.584Z,29.84
2023-03-17T14:52:25.266Z,29.94
2023-03-17T14:54:55.283Z,30.12
2023-03-17T14:57:30.314Z,30.25
2023-03-17T15:00:00.848Z,30.34
2023-03-17T15:02:34.969Z,30.32
2023-03-17T15:05:18.730Z,30.38
2023-03-17T15:07:47.125Z,30.60
2023-03-17T15:10:17.918Z,30.68
2023-03-17T15:12:48.597Z,30.78
2023-03-17T15:15:24.475Z,30.84
2023-03-17T15:17:56.121Z,31.06
2023-03-17T15:20:25.462Z,31.21
2023-03-17T15:22:59.692Z,31.27
2023-03-17T15:25:34.873Z,31.58
2023-03-17T15:28:12.308Z,31.90
2023-03-17T15:30:47.777Z,31.54
2023-03-17T15:33:22.936Z,31.58
2023-03-17T15:35:51.788Z,31.76
2023-03-17T15:38:20.200Z,31.43
2023-03-17T15:40:48.893Z,31.82
2023-03-17T15:43:21.774Z,32.14
2023-03-17T15:45:56.108Z,32.08
2023-03-17T15:48:28.006Z,32.22
2023-03-17T15:50:57.970Z,32.17
2023-03-17T15:53:26.886Z,32.44
2023-03-17T15:55:55.733Z,32.57
2023-03-17T15:58:26.353Z,32.64
2023-03-17T16:00:57.640Z,32.64
2023-03-17T16:03:30.423Z,32.44
2023-03-17T16:05:59.993Z,32.64
2023-03-17T16:08:29.264Z,32.88
2023-03-17T16:10:58.517Z,32.92
2023-03-17T16:13:28.282Z,32.66
2023-03-17T16:15:58.416Z,32.85
2023-03-17T16:18:32.778Z,32.81
2023-03-17T16:21:02.985Z,33.00
2023-03-17T16:23:35.859Z,32.74
2023-03-17T16:26:14.637Z,32.95
2023-03-17T16:28:47.761Z,32.96
2023-03-17T16:31:25.699Z,33.20
2023-03-17T16:33:57.464Z,33.30
2023-03-17T16:36:26.665Z,33.51
2023-03-17T16:38:55.750Z,33.39
2023-03-17T16:41:27.550Z,33.49
2023-03-17T16:44:01.348Z,33.68
2023-03-17T16:46:35.211Z,33.66
2023-03-17T16:49:04.306Z,33.67
2023-03-17T16:51:32.668Z,33.66
2023-03-17T16:54:01.231Z,33.64
2023-03-17T16:56:30.107Z,33.41
2023-03-17T16:59:00.276Z,33.55
2023-03-17T17:01:29.969Z,33.46
2023-03-17T17:03:58.440Z,33.68
2023-03-17T17:06:26.984Z,33.69
2023-03-17T17:08:55.713Z,33.60
2023-03-17T17:11:24.017Z,33.42
2023-03-17T17:13:52.705Z,33.95
2023-03-17T17:16:29.327Z,33.94
2023-03-17T17:18:59.190Z,34.00
2023-03-17T17:21:28.063Z,33.97
2023-03-17T17:23:57.228Z,34.13
2023-03-17T17:26:25.958Z,34.16
2023-03-17T17:28:54.649Z,33.81
2023-03-17T17:31:24.524Z,33.91
2023-03-17T17:33:53.249Z,34.03
2023-03-17T17:36:21.586Z,34.37
2023-03-17T17:38:51.482Z,34.29
2023-03-17T17:41:21.759Z,34.41
2023-03-17T17:43:50.185Z,34.37
2023-03-17T17:46:20.690Z,34.71
2023-03-17T17:48:51.229Z,34.89
2023-03-17T17:51:19.636Z,34.67
2023-03-17T17:53:48.013Z,34.60
2023-03-17T17:56:17.846Z,34.81
2023-03-17T17:58:46.647Z,34.92
2023-03-17T18:01:20.056Z,35.06
2023-03-17T18:03:50.098Z,35.11
2023-03-17T18:06:18.549Z,35.02
2023-03-17T18:08:47.159Z,35.10
2023-03-17T18:11:15.688Z,35.17
2023-03-17T18:13:43.982Z,35.50
2023-03-17T18:16:16.466Z,35.90
2023-03-17T18:18:46.122Z,35.74
2023-03-17T18:21:16.160Z,35.53
2023-03-17T18:23:47.348Z,35.60
2023-03-17T18:26:16.779Z,35.59
2023-03-17T18:28:45.639Z,35.57
2023-03-17T18:31:17.846Z,35.67
2023-03-17T18:33:47.281Z,35.55
2023-03-17T18:36:17.295Z,35.62
2023-03-17T18:38:45.597Z,35.53
2023-03-17T18:41:14.241Z,35.56
2023-03-17T18:43:45.002Z,35.55
2023-03-17T18:46:14.037Z,35.61
2023-03-17T18:48:42.537Z,35.67
2023-03-17T18:51:10.807Z,35.73
2023-03-17T18:53:40.566Z,35.80
2023-03-17T18:56:09.504Z,35.72
2023-03-17T18:58:37.927Z,35.76
2023-03-17T19:01:06.739Z,35.75
2023-03-17T19:03:35.341Z,35.71
2023-03-17T19:06:14.774Z,35.71
2023-03-17T19:08:45.445Z,35.78
2023-03-17T19:11:15.576Z,35.77
2023-03-17T19:13:45.557Z,35.97
2023-03-17T19:16:15.449Z,36.20
2023-03-17T19:18:43.875Z,36.19
2023-03-17T19:21:13.910Z,36.54
2023-03-17T19:23:43.885Z,36.76
2023-03-17T19:26:12.870Z,37.21
2023-03-17T19:28:41.505Z,37.43
2023-03-17T19:31:10.064Z,37.39
2023-03-17T19:33:38.459Z,37.37
2023-03-17T19:36:09.178Z,37.35
2023-03-17T19:38:38.381Z,37.37
2023-03-17T19:41:08.254Z,37.27
2023-03-17T19:43:41.085Z,37.16
2023-03-17T19:46:11.121Z,37.03
2023-03-17T19:48:40.372Z,36.93
2023-03-17T19:51:09.501Z,36.94
2023-03-17T19:53:38.659Z,36.93
2023-03-17T19:56:08.929Z,36.82
2023-03-17T19:58:37.609Z,36.76
2023-03-17T20:01:07.076Z,36.88
2023-03-17T20:03:39.630Z,37.03
2023-03-17T20:06:08.100Z,36.94
2023-03-17T20:08:37.026Z,37.05
2023-03-17T20:11:06.154Z,37.23
2023-03-17T20:13:38.806Z,37.63
2023-03-17T20:16:08.382Z,38.03
2023-03-17T20:18:37.123Z,38.14
2023-03-17T20:21:07.892Z,37.75
2023-03-17T20:23:37.934Z,37.83
2023-03-17T20:26:07.182Z,37.83
2023-03-17T20:28:38.728Z,38.16
2023-03-17T20:31:08.252Z,38.25
2023-03-17T20:33:36.759Z,38.36
2023-03-17T20:36:05.747Z,38.66
2023-03-17T20:38:37.053Z,38.63
2023-03-17T20:41:14.191Z,38.92
2023-03-17T20:43:44.645Z,38.97
2023-03-17T20:46:17.238Z,39.24
2023-03-17T20:48:47.851Z,39.34
2023-03-17T20:51:17.405Z,39.46
2023-03-17T20:53:46.559Z,39.75
2023-03-17T20:56:16.722Z,40.04
2023-03-17T20:58:48.666Z,40.16
2023-03-17T21:01:20.992Z,40.21
2023-03-17T21:03:50.840Z,40.60
2023-03-17T21:06:20.115Z,40.80
2023-03-17T21:08:49.172Z,40.64
2023-03-17T21:11:20.291Z,40.70
2023-03-17T21:13:51.860Z,40.67
2023-03-17T21:16:24.048Z,40.45
2023-03-17T21:18:52.861Z,40.35
2023-03-17T21:21:22.995Z,40.27
2023-03-17T21:23:51.532Z,40.11
2023-03-17T21:26:20.160Z,40.13
2023-03-17T21:28:51.088Z,40.01
2023-03-17T21:31:19.577Z,39.80
2023-03-17T21:33:50.718Z,39.60
2023-03-17T21:36:20.982Z,39.54
2023-03-17T21:38:49.662Z,39.50
2023-03-17T21:41:30.487Z,39.24
2023-03-17T21:44:00.701Z,39.32
2023-03-17T21:46:29.740Z,39.11
2023-03-17T21:48:59.716Z,38.81
2023-03-17T21:51:30.266Z,38.52
2023-03-17T21:54:00.106Z,38.59
2023-03-17T21:56:29.424Z,38.34
2023-03-17T21:59:00.462Z,38.11
2023-03-17T22:01:30.350Z,38.19
2023-03-17T22:03:59.786Z,37.90
2023-03-17T22:06:29.614Z,37.72
2023-03-17T22:08:58.186Z,37.59
2023-03-17T22:11:27.847Z,37.66
2023-03-17T22:13:57.824Z,37.67
2023-03-17T22:16:28.566Z,37.55
2023-03-17T22:18:59.453Z,37.53
2023-03-17T22:21:29.397Z,37.45
2023-03-17T22:23:58.958Z,37.56
2023-03-17T22:26:28.941Z,37.52
2023-03-17T22:28:57.323Z,37.62
2023-03-17T22:31:31.321Z,37.56
2023-03-17T22:34:03.186Z,37.68
2023-03-17T22:36:33.680Z,37.65
2023-03-17T22:39:03.578Z,37.67
2023-03-17T22:41:34.930Z,37.68
2023-03-17T22:44:05.191Z,37.68
2023-03-17T22:46:36.702Z,37.82
2023-03-17T22:49:06.152Z,37.73
2023-03-17T22:51:36.148Z,37.83
2023-03-17T22:54:05.050Z,37.76
2023-03-17T22:56:33.395Z,37.90
2023-03-17T22:59:02.434Z,37.88
2023-03-17T23:01:31.991Z,37.87
2023-03-17T23:04:04.354Z,37.89
2023-03-17T23:06:33.186Z,37.98
2023-03-17T23:09:01.644Z,37.74
2023-03-17T23:11:30.072Z,37.73
2023-03-17T23:13:58.788Z,37.67
2023-03-17T23:16:27.330Z,37.75
2023-03-17T23:18:55.767Z,37.54
2023-03-17T23:21:29.658Z,37.64
2023-03-17T23:23:58.026Z,37.42
2023-03-17T23:26:26.740Z,37.58
2023-03-17T23:28:56.519Z,37.73
2023-03-17T23:31:24.951Z,37.84
2023-03-17T23:33:53.464Z,38.00
2023-03-17T23:36:22.139Z,37.77
2023-03-17T23:38:52.593Z,37.70
2023-03-17T23:41:20.914Z,37.84
2023-03-17T23:43:49.171Z,37.88
2023-03-17T23:46:17.881Z,38.12
2023-03-17T23:48:46.776Z,38.36
2023-03-17T23:51:15.058Z,38.28
2023-03-17T23:53:43.575Z,38.30
2023-03-17T23:56:14.162Z,38.16
2023-03-17T23:58:43.760Z,38.34
